sensor_id;sensor_type;location;lat;lon;timestamp;temperature;humidity
40434;DHT22;26146;51.114;5.654;2023-02-26T00:03:15;1.40;99.90
40434;DHT22;26146;51.114;5.654;2023-02-26T00:07:16;1.30;99.90
40434;DHT22;26146;51.114;5.654;2023-02-26T00:11:17;1.30;99.90
40434;DHT22;26146;51.114;5.654;2023-02-26T00:15:18;1.20;99.90
40434;DHT22;26146;51.114;5.654;2023-02-26T00:19:20;1.10;99.90
40434;DHT22;26146;51.114;5.654;2023-02-26T00:23:21;1.10;99.90
40434;DHT22;26146;51.114;5.654;2023-02-26T00:27:25;1.10;99.90
40434;DHT22;26146;51.114;5.654;2023-02-26T00:31:27;1.00;99.90
40434;DHT22;26146;51.114;5.654;2023-02-26T00:35:28;1.20;99.90
40434;DHT22;26146;51.114;5.654;2023-02-26T00:40:33;1.10;99.90
40434;DHT22;26146;51.114;5.654;2023-02-26T00:44:09;1.10;99.90
40434;DHT22;26146;51.114;5.654;2023-02-26T00:48:58;1.10;99.90
40434;DHT22;26146;51.114;5.654;2023-02-26T00:57:15;1.00;99.90
40434;DHT22;26146;51.114;5.654;2023-02-26T01:01:16;1.00;99.90
40434;DHT22;26146;51.114;5.654;2023-02-26T01:05:17;1.00;99.90
40434;DHT22;26146;51.114;5.654;2023-02-26T01:09:32;0.90;99.90
40434;DHT22;26146;51.114;5.654;2023-02-26T01:13:34;0.90;99.90
40434;DHT22;26146;51.114;5.654;2023-02-26T01:26:28;1.00;99.90
40434;DHT22;26146;51.114;5.654;2023-02-26T01:30:32;1.00;99.90
40434;DHT22;26146;51.114;5.654;2023-02-26T01:43:16;1.10;99.90
40434;DHT22;26146;51.114;5.654;2023-02-26T01:55:44;1.10;99.90
40434;DHT22;26146;51.114;5.654;2023-02-26T01:59:49;0.90;99.90
40434;DHT22;26146;51.114;5.654;2023-02-26T02:03:51;0.90;99.90
40434;DHT22;26146;51.114;5.654;2023-02-26T02:07:53;0.90;99.90
40434;DHT22;26146;51.114;5.654;2023-02-26T02:21:27;1.00;99.90
40434;DHT22;26146;51.114;5.654;2023-02-26T02:30:06;1.00;99.90
40434;DHT22;26146;51.114;5.654;2023-02-26T02:34:20;0.90;99.90
40434;DHT22;26146;51.114;5.654;2023-02-26T02:38:27;0.80;99.90
40434;DHT22;26146;51.114;5.654;2023-02-26T02:42:34;0.90;99.90
40434;DHT22;26146;51.114;5.654;2023-02-26T02:46:39;0.90;99.90
40434;DHT22;26146;51.114;5.654;2023-02-26T02:51:09;0.80;99.90
40434;DHT22;26146;51.114;5.654;2023-02-26T02:55:33;0.60;99.90
40434;DHT22;26146;51.114;5.654;2023-02-26T02:59:43;0.80;99.90
40434;DHT22;26146;51.114;5.654;2023-02-26T03:08:18;0.50;99.90
40434;DHT22;26146;51.114;5.654;2023-02-26T03:12:20;0.60;99.90
40434;DHT22;26146;51.114;5.654;2023-02-26T03:17:13;0.60;99.90
40434;DHT22;26146;51.114;5.654;2023-02-26T03:21:13;0.70;99.90
40434;DHT22;26146;51.114;5.654;2023-02-26T03:25:37;0.40;99.90
40434;DHT22;26146;51.114;5.654;2023-02-26T03:39:08;0.50;99.90
40434;DHT22;26146;51.114;5.654;2023-02-26T03:43:18;0.40;99.90
40434;DHT22;26146;51.114;5.654;2023-02-26T03:47:24;0.40;99.90
40434;DHT22;26146;51.114;5.654;2023-02-26T03:51:25;0.60;99.90
40434;DHT22;26146;51.114;5.654;2023-02-26T03:59:49;0.40;99.90
40434;DHT22;26146;51.114;5.654;2023-02-26T04:03:57;0.50;99.90
40434;DHT22;26146;51.114;5.654;2023-02-26T04:08:00;0.40;99.90
40434;DHT22;26146;51.114;5.654;2023-02-26T04:12:01;0.50;99.90
40434;DHT22;26146;51.114;5.654;2023-02-26T04:16:04;0.60;99.90
40434;DHT22;26146;51.114;5.654;2023-02-26T04:20:05;0.50;99.90
40434;DHT22;26146;51.114;5.654;2023-02-26T04:24:10;0.50;99.90
40434;DHT22;26146;51.114;5.654;2023-02-26T04:28:11;0.40;99.90
40434;DHT22;26146;51.114;5.654;2023-02-26T04:32:12;0.30;99.90
40434;DHT22;26146;51.114;5.654;2023-02-26T04:36:13;0.30;99.90
40434;DHT22;26146;51.114;5.654;2023-02-26T04:40:14;0.40;99.90
40434;DHT22;26146;51.114;5.654;2023-02-26T04:44:15;0.30;99.90
40434;DHT22;26146;51.114;5.654;2023-02-26T04:48:16;0.30;99.90
40434;DHT22;26146;51.114;5.654;2023-02-26T04:52:17;0.20;99.90
40434;DHT22;26146;51.114;5.654;2023-02-26T04:56:18;0.30;99.90
40434;DHT22;26146;51.114;5.654;2023-02-26T05:00:19;0.20;99.90
40434;DHT22;26146;51.114;5.654;2023-02-26T05:04:20;0.10;99.90
40434;DHT22;26146;51.114;5.654;2023-02-26T05:08:21;0.00;99.90
40434;DHT22;26146;51.114;5.654;2023-02-26T05:12:23;0.00;99.90
40434;DHT22;26146;51.114;5.654;2023-02-26T05:16:27;0.20;99.90
40434;DHT22;26146;51.114;5.654;2023-02-26T05:20:28;0.20;99.90
40434;DHT22;26146;51.114;5.654;2023-02-26T05:24:29;0.30;99.90
40434;DHT22;26146;51.114;5.654;2023-02-26T05:28:30;0.10;99.90
40434;DHT22;26146;51.114;5.654;2023-02-26T05:32:31;0.20;99.90
40434;DHT22;26146;51.114;5.654;2023-02-26T05:36:32;0.10;99.90
40434;DHT22;26146;51.114;5.654;2023-02-26T05:40:33;0.10;99.90
40434;DHT22;26146;51.114;5.654;2023-02-26T05:44:34;0.00;99.90
40434;DHT22;26146;51.114;5.654;2023-02-26T05:48:35;0.00;99.90
40434;DHT22;26146;51.114;5.654;2023-02-26T05:52:36;0.20;99.90
40434;DHT22;26146;51.114;5.654;2023-02-26T05:56:37;0.00;99.90
40434;DHT22;26146;51.114;5.654;2023-02-26T06:00:38;0.00;99.90
40434;DHT22;26146;51.114;5.654;2023-02-26T06:04:39;-0.10;99.90
40434;DHT22;26146;51.114;5.654;2023-02-26T06:08:39;-0.10;99.90
40434;DHT22;26146;51.114;5.654;2023-02-26T06:12:40;-0.10;99.90
40434;DHT22;26146;51.114;5.654;2023-02-26T06:16:41;-0.20;99.90
40434;DHT22;26146;51.114;5.654;2023-02-26T06:20:42;-0.20;99.90
40434;DHT22;26146;51.114;5.654;2023-02-26T06:24:43;-0.20;99.90
40434;DHT22;26146;51.114;5.654;2023-02-26T06:28:44;-0.20;99.90
40434;DHT22;26146;51.114;5.654;2023-02-26T06:32:45;-0.20;99.90
40434;DHT22;26146;51.114;5.654;2023-02-26T06:36:46;-0.10;99.90
40434;DHT22;26146;51.114;5.654;2023-02-26T06:40:47;-0.30;99.90
40434;DHT22;26146;51.114;5.654;2023-02-26T06:44:48;-0.40;99.90
40434;DHT22;26146;51.114;5.654;2023-02-26T06:48:49;-0.30;99.90
40434;DHT22;26146;51.114;5.654;2023-02-26T06:52:50;-0.20;99.90
40434;DHT22;26146;51.114;5.654;2023-02-26T06:56:51;-0.10;99.90
40434;DHT22;26146;51.114;5.654;2023-02-26T07:00:52;-0.10;99.90
40434;DHT22;26146;51.114;5.654;2023-02-26T07:04:53;-0.10;99.90
40434;DHT22;26146;51.114;5.654;2023-02-26T07:08:54;-0.10;99.90
40434;DHT22;26146;51.114;5.654;2023-02-26T07:12:55;0.00;99.90
40434;DHT22;26146;51.114;5.654;2023-02-26T07:16:56;0.00;99.90
40434;DHT22;26146;51.114;5.654;2023-02-26T07:20:57;0.00;99.90
40434;DHT22;26146;51.114;5.654;2023-02-26T07:24:58;0.10;99.90
40434;DHT22;26146;51.114;5.654;2023-02-26T07:29:00;0.10;99.90
40434;DHT22;26146;51.114;5.654;2023-02-26T07:33:00;0.40;99.90
40434;DHT22;26146;51.114;5.654;2023-02-26T07:37:01;0.40;99.90
40434;DHT22;26146;51.114;5.654;2023-02-26T07:41:03;0.40;99.90
40434;DHT22;26146;51.114;5.654;2023-02-26T07:45:05;0.50;99.90
40434;DHT22;26146;51.114;5.654;2023-02-26T07:49:06;0.50;99.90
40434;DHT22;26146;51.114;5.654;2023-02-26T07:53:07;0.60;99.90
40434;DHT22;26146;51.114;5.654;2023-02-26T07:57:08;0.60;99.90
40434;DHT22;26146;51.114;5.654;2023-02-26T08:01:09;0.70;99.90
40434;DHT22;26146;51.114;5.654;2023-02-26T08:05:10;0.80;99.90
40434;DHT22;26146;51.114;5.654;2023-02-26T08:09:11;0.90;99.90
40434;DHT22;26146;51.114;5.654;2023-02-26T08:13:16;0.90;99.90
40434;DHT22;26146;51.114;5.654;2023-02-26T08:17:17;1.00;99.90
40434;DHT22;26146;51.114;5.654;2023-02-26T08:21:17;1.00;99.90
40434;DHT22;26146;51.114;5.654;2023-02-26T08:25:19;1.10;99.90
40434;DHT22;26146;51.114;5.654;2023-02-26T08:29:20;1.30;99.90
40434;DHT22;26146;51.114;5.654;2023-02-26T08:33:21;1.30;99.90
40434;DHT22;26146;51.114;5.654;2023-02-26T08:37:22;1.20;99.90
40434;DHT22;26146;51.114;5.654;2023-02-26T08:41:24;1.30;99.90
40434;DHT22;26146;51.114;5.654;2023-02-26T08:45:27;1.30;99.90
40434;DHT22;26146;51.114;5.654;2023-02-26T08:49:28;1.50;99.90
40434;DHT22;26146;51.114;5.654;2023-02-26T08:53:31;1.60;99.90
40434;DHT22;26146;51.114;5.654;2023-02-26T08:57:32;1.90;99.90
40434;DHT22;26146;51.114;5.654;2023-02-26T09:01:33;1.90;99.90
40434;DHT22;26146;51.114;5.654;2023-02-26T09:05:34;1.90;99.90
40434;DHT22;26146;51.114;5.654;2023-02-26T09:09:35;2.10;99.90
40434;DHT22;26146;51.114;5.654;2023-02-26T09:13:36;2.10;99.90
40434;DHT22;26146;51.114;5.654;2023-02-26T09:17:40;2.10;99.90
40434;DHT22;26146;51.114;5.654;2023-02-26T09:21:41;2.10;99.90
40434;DHT22;26146;51.114;5.654;2023-02-26T09:25:42;2.40;99.90
40434;DHT22;26146;51.114;5.654;2023-02-26T09:29:43;2.60;99.90
40434;DHT22;26146;51.114;5.654;2023-02-26T09:33:44;2.50;99.90
40434;DHT22;26146;51.114;5.654;2023-02-26T09:37:44;2.50;99.90
40434;DHT22;26146;51.114;5.654;2023-02-26T09:41:54;2.50;99.90
40434;DHT22;26146;51.114;5.654;2023-02-26T09:50:25;2.70;99.90
40434;DHT22;26146;51.114;5.654;2023-02-26T09:54:31;2.60;99.90
40434;DHT22;26146;51.114;5.654;2023-02-26T09:58:36;2.70;99.90
40434;DHT22;26146;51.114;5.654;2023-02-26T10:02:44;2.90;99.90
40434;DHT22;26146;51.114;5.654;2023-02-26T10:11:30;3.50;99.90
40434;DHT22;26146;51.114;5.654;2023-02-26T10:15:42;3.90;99.90
40434;DHT22;26146;51.114;5.654;2023-02-26T10:19:48;4.00;99.10
40434;DHT22;26146;51.114;5.654;2023-02-26T10:24:00;4.00;97.80
40434;DHT22;26146;51.114;5.654;2023-02-26T10:28:34;3.80;98.20
40434;DHT22;26146;51.114;5.654;2023-02-26T10:32:45;3.50;98.10
40434;DHT22;26146;51.114;5.654;2023-02-26T10:41:15;4.00;97.90
40434;DHT22;26146;51.114;5.654;2023-02-26T10:50:03;3.90;97.10
40434;DHT22;26146;51.114;5.654;2023-02-26T10:54:13;3.80;96.20
40434;DHT22;26146;51.114;5.654;2023-02-26T10:58:42;4.10;96.70
40434;DHT22;26146;51.114;5.654;2023-02-26T11:02:47;3.80;95.80
40434;DHT22;26146;51.114;5.654;2023-02-26T11:06:55;4.20;96.10
40434;DHT22;26146;51.114;5.654;2023-02-26T11:11:33;4.40;94.70
40434;DHT22;26146;51.114;5.654;2023-02-26T11:15:29;4.40;95.60
40434;DHT22;26146;51.114;5.654;2023-02-26T11:19:38;4.60;94.90
40434;DHT22;26146;51.114;5.654;2023-02-26T11:24:02;4.30;94.00
40434;DHT22;26146;51.114;5.654;2023-02-26T11:28:09;3.90;94.70
40434;DHT22;26146;51.114;5.654;2023-02-26T11:32:21;4.20;95.60
40434;DHT22;26146;51.114;5.654;2023-02-26T11:36:27;4.50;95.50
40434;DHT22;26146;51.114;5.654;2023-02-26T11:40:36;4.30;94.90
40434;DHT22;26146;51.114;5.654;2023-02-26T11:44:43;4.50;94.70
40434;DHT22;26146;51.114;5.654;2023-02-26T11:48:49;4.80;94.20
40434;DHT22;26146;51.114;5.654;2023-02-26T11:53:03;4.70;93.00
40434;DHT22;26146;51.114;5.654;2023-02-26T11:57:06;4.50;94.20
40434;DHT22;26146;51.114;5.654;2023-02-26T12:01:15;4.50;92.70
40434;DHT22;26146;51.114;5.654;2023-02-26T12:05:17;4.20;93.30
40434;DHT22;26146;51.114;5.654;2023-02-26T12:09:21;4.10;93.80
40434;DHT22;26146;51.114;5.654;2023-02-26T12:13:31;4.00;94.00
40434;DHT22;26146;51.114;5.654;2023-02-26T12:17:53;4.20;94.20
40434;DHT22;26146;51.114;5.654;2023-02-26T12:26:34;4.90;93.20
40434;DHT22;26146;51.114;5.654;2023-02-26T12:31:05;5.40;90.50
40434;DHT22;26146;51.114;5.654;2023-02-26T12:47:36;5.50;91.20
40434;DHT22;26146;51.114;5.654;2023-02-26T12:56:47;5.40;90.40
40434;DHT22;26146;51.114;5.654;2023-02-26T13:09:50;4.60;89.20
40434;DHT22;26146;51.114;5.654;2023-02-26T13:14:05;4.70;90.00
40434;DHT22;26146;51.114;5.654;2023-02-26T13:22:40;4.90;90.10
40434;DHT22;26146;51.114;5.654;2023-02-26T13:26:43;4.80;89.60
40434;DHT22;26146;51.114;5.654;2023-02-26T13:30:50;4.80;88.80
40434;DHT22;26146;51.114;5.654;2023-02-26T13:35:15;4.70;90.20
40434;DHT22;26146;51.114;5.654;2023-02-26T13:39:46;4.80;87.90
40434;DHT22;26146;51.114;5.654;2023-02-26T13:52:35;5.00;86.90
40434;DHT22;26146;51.114;5.654;2023-02-26T14:00:45;4.90;87.90
40434;DHT22;26146;51.114;5.654;2023-02-26T14:04:53;4.90;89.40
40434;DHT22;26146;51.114;5.654;2023-02-26T14:09:03;5.10;89.80
40434;DHT22;26146;51.114;5.654;2023-02-26T14:13:19;5.30;88.80
40434;DHT22;26146;51.114;5.654;2023-02-26T14:17:48;5.30;85.30
40434;DHT22;26146;51.114;5.654;2023-02-26T14:22:01;5.00;87.50
40434;DHT22;26146;51.114;5.654;2023-02-26T14:26:05;4.90;87.90
40434;DHT22;26146;51.114;5.654;2023-02-26T14:34:20;5.10;88.00
40434;DHT22;26146;51.114;5.654;2023-02-26T14:38:30;5.20;88.60
40434;DHT22;26146;51.114;5.654;2023-02-26T14:42:50;5.30;87.20
40434;DHT22;26146;51.114;5.654;2023-02-26T14:46:52;5.20;85.40
40434;DHT22;26146;51.114;5.654;2023-02-26T15:07:52;5.30;87.20
40434;DHT22;26146;51.114;5.654;2023-02-26T15:16:49;5.20;85.50
40434;DHT22;26146;51.114;5.654;2023-02-26T15:21:29;5.00;86.60
40434;DHT22;26146;51.114;5.654;2023-02-26T15:25:39;5.20;87.10
40434;DHT22;26146;51.114;5.654;2023-02-26T15:29:41;5.30;86.90
40434;DHT22;26146;51.114;5.654;2023-02-26T15:33:42;5.30;88.00
40434;DHT22;26146;51.114;5.654;2023-02-26T15:38:47;5.40;88.80
40434;DHT22;26146;51.114;5.654;2023-02-26T15:42:51;5.30;86.90
40434;DHT22;26146;51.114;5.654;2023-02-26T15:46:58;5.10;88.00
40434;DHT22;26146;51.114;5.654;2023-02-26T15:51:05;5.20;88.00
40434;DHT22;26146;51.114;5.654;2023-02-26T15:55:12;5.20;86.60
40434;DHT22;26146;51.114;5.654;2023-02-26T15:59:20;5.30;86.80
40434;DHT22;26146;51.114;5.654;2023-02-26T16:03:31;5.30;87.70
40434;DHT22;26146;51.114;5.654;2023-02-26T16:07:32;5.10;86.80
40434;DHT22;26146;51.114;5.654;2023-02-26T16:11:41;5.10;86.50
40434;DHT22;26146;51.114;5.654;2023-02-26T16:15:46;5.10;88.10
40434;DHT22;26146;51.114;5.654;2023-02-26T16:19:51;5.20;88.70
40434;DHT22;26146;51.114;5.654;2023-02-26T16:23:54;5.20;89.30
40434;DHT22;26146;51.114;5.654;2023-02-26T16:28:03;5.30;89.50
40434;DHT22;26146;51.114;5.654;2023-02-26T16:32:08;5.30;89.60
40434;DHT22;26146;51.114;5.654;2023-02-26T16:36:14;5.20;90.30
40434;DHT22;26146;51.114;5.654;2023-02-26T16:40:33;5.10;90.80
40434;DHT22;26146;51.114;5.654;2023-02-26T16:44:36;5.00;91.20
40434;DHT22;26146;51.114;5.654;2023-02-26T16:48:47;5.00;91.40
40434;DHT22;26146;51.114;5.654;2023-02-26T16:53:11;4.90;91.70
40434;DHT22;26146;51.114;5.654;2023-02-26T16:57:26;4.70;92.10
40434;DHT22;26146;51.114;5.654;2023-02-26T17:01:38;4.70;92.10
40434;DHT22;26146;51.114;5.654;2023-02-26T17:05:47;4.80;92.40
40434;DHT22;26146;51.114;5.654;2023-02-26T17:09:51;4.70;92.30
40434;DHT22;26146;51.114;5.654;2023-02-26T17:14:16;4.70;92.60
40434;DHT22;26146;51.114;5.654;2023-02-26T17:18:21;4.50;93.30
40434;DHT22;26146;51.114;5.654;2023-02-26T17:22:26;4.40;93.70
40434;DHT22;26146;51.114;5.654;2023-02-26T17:26:28;4.30;94.00
40434;DHT22;26146;51.114;5.654;2023-02-26T17:30:29;4.20;94.60
40434;DHT22;26146;51.114;5.654;2023-02-26T17:34:33;4.20;94.60
40434;DHT22;26146;51.114;5.654;2023-02-26T17:38:34;4.10;94.80
40434;DHT22;26146;51.114;5.654;2023-02-26T17:43:05;4.10;94.90
40434;DHT22;26146;51.114;5.654;2023-02-26T17:47:08;4.00;95.40
40434;DHT22;26146;51.114;5.654;2023-02-26T17:51:10;3.90;95.20
40434;DHT22;26146;51.114;5.654;2023-02-26T17:55:13;3.90;95.30
40434;DHT22;26146;51.114;5.654;2023-02-26T17:59:14;3.90;95.10
40434;DHT22;26146;51.114;5.654;2023-02-26T18:03:15;3.90;95.40
40434;DHT22;26146;51.114;5.654;2023-02-26T18:07:16;3.90;95.20
40434;DHT22;26146;51.114;5.654;2023-02-26T18:11:18;3.80;95.30
40434;DHT22;26146;51.114;5.654;2023-02-26T18:15:21;3.80;95.30
40434;DHT22;26146;51.114;5.654;2023-02-26T18:19:22;3.70;95.40
40434;DHT22;26146;51.114;5.654;2023-02-26T18:23:24;3.80;95.50
40434;DHT22;26146;51.114;5.654;2023-02-26T18:27:25;3.80;95.50
40434;DHT22;26146;51.114;5.654;2023-02-26T18:31:26;3.90;95.40
40434;DHT22;26146;51.114;5.654;2023-02-26T18:35:33;3.70;95.60
40434;DHT22;26146;51.114;5.654;2023-02-26T18:39:34;3.80;95.70
40434;DHT22;26146;51.114;5.654;2023-02-26T18:43:37;3.60;96.10
40434;DHT22;26146;51.114;5.654;2023-02-26T18:47:41;3.50;96.30
40434;DHT22;26146;51.114;5.654;2023-02-26T18:51:42;3.50;96.50
40434;DHT22;26146;51.114;5.654;2023-02-26T18:55:45;3.40;96.60
40434;DHT22;26146;51.114;5.654;2023-02-26T18:59:46;3.40;97.10
40434;DHT22;26146;51.114;5.654;2023-02-26T19:03:47;3.40;97.20
40434;DHT22;26146;51.114;5.654;2023-02-26T19:07:49;3.30;97.10
40434;DHT22;26146;51.114;5.654;2023-02-26T19:11:50;3.30;97.20
40434;DHT22;26146;51.114;5.654;2023-02-26T19:15:51;3.30;97.40
40434;DHT22;26146;51.114;5.654;2023-02-26T19:19:52;3.30;97.70
40434;DHT22;26146;51.114;5.654;2023-02-26T19:23:53;3.30;97.70
40434;DHT22;26146;51.114;5.654;2023-02-26T19:27:54;3.10;98.10
40434;DHT22;26146;51.114;5.654;2023-02-26T19:31:55;3.20;98.40
40434;DHT22;26146;51.114;5.654;2023-02-26T19:35:56;3.10;98.40
40434;DHT22;26146;51.114;5.654;2023-02-26T19:39:58;3.20;98.40
40434;DHT22;26146;51.114;5.654;2023-02-26T19:43:59;3.10;98.50
40434;DHT22;26146;51.114;5.654;2023-02-26T19:48:00;3.10;98.90
40434;DHT22;26146;51.114;5.654;2023-02-26T19:52:03;2.90;99.20
40434;DHT22;26146;51.114;5.654;2023-02-26T19:56:05;2.90;99.60
40434;DHT22;26146;51.114;5.654;2023-02-26T20:00:07;2.90;99.70
40434;DHT22;26146;51.114;5.654;2023-02-26T20:04:09;3.00;99.70
40434;DHT22;26146;51.114;5.654;2023-02-26T20:08:12;2.90;99.80
40434;DHT22;26146;51.114;5.654;2023-02-26T20:12:13;2.90;99.90
40434;DHT22;26146;51.114;5.654;2023-02-26T20:16:15;3.10;99.80
40434;DHT22;26146;51.114;5.654;2023-02-26T20:20:16;3.10;99.90
40434;DHT22;26146;51.114;5.654;2023-02-26T20:24:17;2.90;99.90
40434;DHT22;26146;51.114;5.654;2023-02-26T20:28:19;2.70;99.90
40434;DHT22;26146;51.114;5.654;2023-02-26T20:32:23;2.80;99.90
40434;DHT22;26146;51.114;5.654;2023-02-26T20:36:25;2.80;99.90
40434;DHT22;26146;51.114;5.654;2023-02-26T20:40:26;3.00;99.90
40434;DHT22;26146;51.114;5.654;2023-02-26T20:44:27;2.90;99.90
40434;DHT22;26146;51.114;5.654;2023-02-26T20:48:28;2.80;99.90
40434;DHT22;26146;51.114;5.654;2023-02-26T20:52:28;2.90;99.90
40434;DHT22;26146;51.114;5.654;2023-02-26T20:56:29;2.90;99.90
40434;DHT22;26146;51.114;5.654;2023-02-26T21:00:30;2.90;99.90
40434;DHT22;26146;51.114;5.654;2023-02-26T21:04:31;2.90;99.90
40434;DHT22;26146;51.114;5.654;2023-02-26T21:08:32;2.90;99.90
40434;DHT22;26146;51.114;5.654;2023-02-26T21:12:34;2.80;99.90
40434;DHT22;26146;51.114;5.654;2023-02-26T21:16:36;2.80;99.90
40434;DHT22;26146;51.114;5.654;2023-02-26T21:20:38;2.80;99.90
40434;DHT22;26146;51.114;5.654;2023-02-26T21:24:39;2.80;99.90
40434;DHT22;26146;51.114;5.654;2023-02-26T21:28:42;2.80;99.90
40434;DHT22;26146;51.114;5.654;2023-02-26T21:32:47;2.80;99.90
40434;DHT22;26146;51.114;5.654;2023-02-26T21:36:49;2.70;99.90
40434;DHT22;26146;51.114;5.654;2023-02-26T21:40:50;2.60;99.90
40434;DHT22;26146;51.114;5.654;2023-02-26T21:44:53;2.60;99.90
40434;DHT22;26146;51.114;5.654;2023-02-26T21:48:54;2.70;99.90
40434;DHT22;26146;51.114;5.654;2023-02-26T21:52:55;2.50;99.90
40434;DHT22;26146;51.114;5.654;2023-02-26T21:56:56;2.50;99.90
40434;DHT22;26146;51.114;5.654;2023-02-26T22:00:58;2.50;99.90
40434;DHT22;26146;51.114;5.654;2023-02-26T22:04:59;2.40;99.90
40434;DHT22;26146;51.114;5.654;2023-02-26T22:09:00;2.40;99.90
40434;DHT22;26146;51.114;5.654;2023-02-26T22:13:01;2.30;99.90
40434;DHT22;26146;51.114;5.654;2023-02-26T22:17:02;2.30;99.90
40434;DHT22;26146;51.114;5.654;2023-02-26T22:21:03;2.30;99.90
40434;DHT22;26146;51.114;5.654;2023-02-26T22:25:11;2.30;99.90
40434;DHT22;26146;51.114;5.654;2023-02-26T22:29:12;2.20;99.90
40434;DHT22;26146;51.114;5.654;2023-02-26T22:33:13;2.30;99.90
40434;DHT22;26146;51.114;5.654;2023-02-26T22:37:17;2.10;99.90
40434;DHT22;26146;51.114;5.654;2023-02-26T22:41:18;2.20;99.90
40434;DHT22;26146;51.114;5.654;2023-02-26T22:45:19;2.10;99.90
40434;DHT22;26146;51.114;5.654;2023-02-26T22:49:20;2.00;99.90
40434;DHT22;26146;51.114;5.654;2023-02-26T22:53:21;2.10;99.90
40434;DHT22;26146;51.114;5.654;2023-02-26T22:57:22;2.00;99.90
40434;DHT22;26146;51.114;5.654;2023-02-26T23:01:23;2.10;99.90
40434;DHT22;26146;51.114;5.654;2023-02-26T23:05:24;2.00;99.90
40434;DHT22;26146;51.114;5.654;2023-02-26T23:09:25;2.00;99.90
40434;DHT22;26146;51.114;5.654;2023-02-26T23:13:27;1.90;99.90
40434;DHT22;26146;51.114;5.654;2023-02-26T23:17:30;1.80;99.90
40434;DHT22;26146;51.114;5.654;2023-02-26T23:21:31;1.70;99.90
40434;DHT22;26146;51.114;5.654;2023-02-26T23:25:32;1.70;99.90
40434;DHT22;26146;51.114;5.654;2023-02-26T23:29:33;1.80;99.90
40434;DHT22;26146;51.114;5.654;2023-02-26T23:33:34;1.70;99.90
40434;DHT22;26146;51.114;5.654;2023-02-26T23:37:35;1.70;99.90
40434;DHT22;26146;51.114;5.654;2023-02-26T23:41:36;1.70;99.90
40434;DHT22;26146;51.114;5.654;2023-02-26T23:45:37;1.60;99.90
40434;DHT22;26146;51.114;5.654;2023-02-26T23:49:38;1.60;99.90
40434;DHT22;26146;51.114;5.654;2023-02-26T23:53:39;1.60;99.90
40434;DHT22;26146;51.114;5.654;2023-02-26T23:57:41;1.50;99.90
